Agios Georgios I — SX9857 — position and weather

sailwx.info

Track history (hours):
 
Tides and Currents Weather Stations Pressure Air Temp Water Temp Dewpoint Dewpoint Depression Visibility Wind Speed Wind Dir Waves Ship Positions

Agios Georgios I

Last reported at 2015-Apr-01 21:33 UTC. Time now 2015-Apr-01 22:34 UTC.
Position N 37°38' E 023°47'.

Length 59 m; draft 5 m.

Type: Ship (hazmat cat B). MMSI: 239912000.

Date/timePositionNaut miles runAvg speedWind from/ knotsBaromVisibWave heightAir tempDewpointWater temp
2015-Apr-01 21:33N 37°38' E 023°47'8 8.2
2015-Apr-01 20:33N 37°44' E 023°40'8 8.4
2015-Apr-01 19:33N 37°52' E 023°36'5 5.4
2015-Apr-01 18:33N 37°57' E 023°35'0 0.0
2015-Apr-01 17:33N 37°57' E 023°35'0 0.0
2015-Apr-01 16:33N 37°57' E 023°35'0 0.0
2015-Apr-01 15:33N 37°57' E 023°35'0 0.0
2015-Apr-01 14:33N 37°57' E 023°35'0 0.0
2015-Apr-01 13:33N 37°57' E 023°35'0 0.0
2015-Apr-01 12:33N 37°57' E 023°35'0 0.0
2015-Apr-01 11:33N 37°57' E 023°35'0 0.0
2015-Apr-01 10:33N 37°57' E 023°35'0 0.0
2015-Apr-01 09:33N 37°57' E 023°35'0 0.0
2015-Apr-01 08:33N 37°57' E 023°35'0 0.0
2015-Apr-01 07:33N 37°57' E 023°35'0 0.0
2015-Apr-01 06:33N 37°57' E 023°35'0 0.0
2015-Apr-01 05:33N 37°57' E 023°35'0 0.0
2015-Apr-01 04:33N 37°57' E 023°35'0 0.0
2015-Apr-01 03:33N 37°57' E 023°35'0 0.0
2015-Apr-01 02:33N 37°57' E 023°35'0 0.0
2015-Apr-01 01:33N 37°57' E 023°35'0 0.0
2015-Apr-01 00:33N 37°57' E 023°35'0 0.0
2015-Mar-31 23:33N 37°57' E 023°35'0 0.0
2015-Mar-31 22:33N 37°57' E 023°35'0 0.3
2015-Mar-31 21:33N 37°57' E 023°35'7 7.0
2015-Mar-31 20:33N 37°51' E 023°39'9 9.0
2015-Mar-31 19:33N 37°43' E 023°44'8 8.0
2015-Mar-31 18:32N 37°38' E 023°52'45 8.8
2015-Mar-31 13:28N 37°31' E 024°48'11 8.4
2015-Mar-31 12:09N 37°30' E 025°02'5 8.6
2015-Mar-31 11:33N 37°29' E 025°08'9 8.7
2015-Mar-31 10:33N 37°28' E 025°19'1 0.6
2015-Mar-31 09:33N 37°28' E 025°20'0 0.0
2015-Mar-31 08:33N 37°28' E 025°20'0 0.0
2015-Mar-31 07:33N 37°28' E 025°20'0 0.0
2015-Mar-31 06:33N 37°28' E 025°20'0 0.1
2015-Mar-31 05:33N 37°28' E 025°19'7 7.3
2015-Mar-31 04:33N 37°27' E 025°10'10 0.5
2015-Mar-30 07:11N 37°25' E 024°58'0 0.0
2015-Mar-30 06:27N 37°25' E 024°58'0 0.0
2015-Mar-30 05:33N 37°25' E 024°58'0 0.0
2015-Mar-30 04:11N 37°25' E 024°58'0 0.0
2015-Mar-30 02:18N 37°25' E 024°58'0 0.0
2015-Mar-29 21:18N 37°25' E 024°58'0 0.0
2015-Mar-29 16:14N 37°25' E 024°58'6 1.0
2015-Mar-29 10:33N 37°26' E 025°05'8 8.2
2015-Mar-29 09:33N 37°27' E 025°15'3 1.1
2015-Mar-29 07:11N 37°26' E 025°19'0 0.0
2015-Mar-29 06:23N 37°26' E 025°19'0 0.0
2015-Mar-29 05:23N 37°26' E 025°19'0 0.0
2015-Mar-29 02:25N 37°27' E 025°19'0 0.0
2015-Mar-28 23:27N 37°27' E 025°19'0 0.0
2015-Mar-28 22:26N 37°27' E 025°19'0 0.0
2015-Mar-28 21:21N 37°27' E 025°19'0 0.2
2015-Mar-28 20:33N 37°27' E 025°19'5 5.5
2015-Mar-28 19:33N 37°21' E 025°17'8 7.8
2015-Mar-28 18:33N 37°14' E 025°20'8 7.6
2015-Mar-28 17:33N 37°06' E 025°22'0 0.1
2015-Mar-28 16:33N 37°06' E 025°22'0 0.0
2015-Mar-28 15:33N 37°06' E 025°22'0 0.0
2015-Mar-28 14:33N 37°06' E 025°22'0 0.0
2015-Mar-28 13:33N 37°06' E 025°22'5 5.0
2015-Mar-28 12:33N 37°10' E 025°18'6 0.3
2015-Mar-27 17:33N 37°12' E 025°10'8 7.9
2015-Mar-27 16:33N 37°19' E 025°15'8 7.6
2015-Mar-27 15:33N 37°26' E 025°17'2 1.6
2015-Mar-27 14:33N 37°26' E 025°19'0 0.0
2015-Mar-27 13:33N 37°26' E 025°19'0 0.0
2015-Mar-27 12:33N 37°26' E 025°19'0 0.0
2015-Mar-27 11:33N 37°26' E 025°19'0 0.0
2015-Mar-27 10:33N 37°26' E 025°19'0 0.0
2015-Mar-27 09:33N 37°26' E 025°19'0 0.0
2015-Mar-27 08:33N 37°26' E 025°19'0 0.0
2015-Mar-27 07:33N 37°26' E 025°19'0 0.0
2015-Mar-27 06:33N 37°26' E 025°19'0 0.0
2015-Mar-27 05:33N 37°26' E 025°19'0 0.0
2015-Mar-27 04:33N 37°26' E 025°19'0 0.0
2015-Mar-27 03:33N 37°26' E 025°19'0 0.0
2015-Mar-27 02:33N 37°26' E 025°19'0 0.0
2015-Mar-27 01:33N 37°26' E 025°19'0 0.0
2015-Mar-27 00:33N 37°26' E 025°19'0 0.0
2015-Mar-26 23:33N 37°26' E 025°19'0 0.0
2015-Mar-26 22:33N 37°26' E 025°19'0 0.0
2015-Mar-26 21:33N 37°26' E 025°19'0 0.0
2015-Mar-26 20:33N 37°26' E 025°19'0 0.0
2015-Mar-26 19:33N 37°26' E 025°19'0 0.0
2015-Mar-26 18:33N 37°26' E 025°19'0 0.0
2015-Mar-26 17:33N 37°26' E 025°19'0 0.0
2015-Mar-26 16:34N 37°26' E 025°19'0 0.0
2015-Mar-26 15:33N 37°26' E 025°19'7 6.6
2015-Mar-26 14:33N 37°30' E 025°12'3 3.3
2015-Mar-26 13:33N 37°32' E 025°09'0 0.0
2015-Mar-26 12:33N 37°32' E 025°09'0 0.0
2015-Mar-26 11:33N 37°32' E 025°09'0 0.0
2015-Mar-26 10:33N 37°32' E 025°09'0 0.0
2015-Mar-26 09:33N 37°32' E 025°09'0 0.0
2015-Mar-26 08:34N 37°32' E 025°09'0 0.0
2015-Mar-26 07:33N 37°32' E 025°09'0 0.0
2015-Mar-26 06:33N 37°32' E 025°09'0 0.0
2015-Mar-26 05:33N 37°32' E 025°09'0 0.0
2015-Mar-26 04:33N 37°32' E 025°09'0 0.0
2015-Mar-26 03:32N 37°32' E 025°09'0 0.0
2015-Mar-26 02:33N 37°32' E 025°09'1 1.0
2015-Mar-26 01:33N 37°31' E 025°09'11 8.4
2015-Mar-26 00:18N 37°34' E 025°22'6 8.4
2015-Mar-25 23:33N 37°36' E 025°30'  
Track history (hours):
 
Tides and Currents Weather Stations Pressure Air Temp Water Temp Dewpoint Dewpoint Depression Visibility Wind Speed Wind Dir Waves Ship Positions

Agios Georgios I

Last reported at 2015-Apr-01 21:33 UTC. Time now 2015-Apr-01 22:34 UTC.
Position N 37°38' E 023°47'.

Length 59 m; draft 5 m.

Type: Ship (hazmat cat B). MMSI: 239912000.

Date/timePositionNaut miles runAvg speedWind from/ knotsBaromVisibWave heightAir tempDewpointWater temp
2015-Apr-01 21:33N 37°38' E 023°47'8 8.2
2015-Apr-01 20:33N 37°44' E 023°40'8 8.4
2015-Apr-01 19:33N 37°52' E 023°36'5 5.4
2015-Apr-01 18:33N 37°57' E 023°35'0 0.0
2015-Apr-01 17:33N 37°57' E 023°35'0 0.0
2015-Apr-01 16:33N 37°57' E 023°35'0 0.0
2015-Apr-01 15:33N 37°57' E 023°35'0 0.0
2015-Apr-01 14:33N 37°57' E 023°35'0 0.0
2015-Apr-01 13:33N 37°57' E 023°35'0 0.0
2015-Apr-01 12:33N 37°57' E 023°35'0 0.0
2015-Apr-01 11:33N 37°57' E 023°35'0 0.0
2015-Apr-01 10:33N 37°57' E 023°35'0 0.0
2015-Apr-01 09:33N 37°57' E 023°35'0 0.0
2015-Apr-01 08:33N 37°57' E 023°35'0 0.0
2015-Apr-01 07:33N 37°57' E 023°35'0 0.0
2015-Apr-01 06:33N 37°57' E 023°35'0 0.0
2015-Apr-01 05:33N 37°57' E 023°35'0 0.0
2015-Apr-01 04:33N 37°57' E 023°35'0 0.0
2015-Apr-01 03:33N 37°57' E 023°35'0 0.0
2015-Apr-01 02:33N 37°57' E 023°35'0 0.0
2015-Apr-01 01:33N 37°57' E 023°35'0 0.0
2015-Apr-01 00:33N 37°57' E 023°35'0 0.0
2015-Mar-31 23:33N 37°57' E 023°35'0 0.0
2015-Mar-31 22:33N 37°57' E 023°35'0 0.3
2015-Mar-31 21:33N 37°57' E 023°35'7 7.0
2015-Mar-31 20:33N 37°51' E 023°39'9 9.0
2015-Mar-31 19:33N 37°43' E 023°44'8 8.0
2015-Mar-31 18:32N 37°38' E 023°52'45 8.8
2015-Mar-31 13:28N 37°31' E 024°48'11 8.4
2015-Mar-31 12:09N 37°30' E 025°02'5 8.6
2015-Mar-31 11:33N 37°29' E 025°08'9 8.7
2015-Mar-31 10:33N 37°28' E 025°19'1 0.6
2015-Mar-31 09:33N 37°28' E 025°20'0 0.0
2015-Mar-31 08:33N 37°28' E 025°20'0 0.0
2015-Mar-31 07:33N 37°28' E 025°20'0 0.0
2015-Mar-31 06:33N 37°28' E 025°20'0 0.1
2015-Mar-31 05:33N 37°28' E 025°19'7 7.3
2015-Mar-31 04:33N 37°27' E 025°10'10 0.5
2015-Mar-30 07:11N 37°25' E 024°58'0 0.0
2015-Mar-30 06:27N 37°25' E 024°58'0 0.0
2015-Mar-30 05:33N 37°25' E 024°58'0 0.0
2015-Mar-30 04:11N 37°25' E 024°58'0 0.0
2015-Mar-30 02:18N 37°25' E 024°58'0 0.0
2015-Mar-29 21:18N 37°25' E 024°58'0 0.0
2015-Mar-29 16:14N 37°25' E 024°58'6 1.0
2015-Mar-29 10:33N 37°26' E 025°05'8 8.2
2015-Mar-29 09:33N 37°27' E 025°15'3 1.1
2015-Mar-29 07:11N 37°26' E 025°19'0 0.0
2015-Mar-29 06:23N 37°26' E 025°19'0 0.0
2015-Mar-29 05:23N 37°26' E 025°19'0 0.0
2015-Mar-29 02:25N 37°27' E 025°19'0 0.0
2015-Mar-28 23:27N 37°27' E 025°19'0 0.0
2015-Mar-28 22:26N 37°27' E 025°19'0 0.0
2015-Mar-28 21:21N 37°27' E 025°19'0 0.2
2015-Mar-28 20:33N 37°27' E 025°19'5 5.5
2015-Mar-28 19:33N 37°21' E 025°17'8 7.8
2015-Mar-28 18:33N 37°14' E 025°20'8 7.6
2015-Mar-28 17:33N 37°06' E 025°22'0 0.1
2015-Mar-28 16:33N 37°06' E 025°22'0 0.0
2015-Mar-28 15:33N 37°06' E 025°22'0 0.0
2015-Mar-28 14:33N 37°06' E 025°22'0 0.0
2015-Mar-28 13:33N 37°06' E 025°22'5 5.0
2015-Mar-28 12:33N 37°10' E 025°18'6 0.3
2015-Mar-27 17:33N 37°12' E 025°10'8 7.9
2015-Mar-27 16:33N 37°19' E 025°15'8 7.6
2015-Mar-27 15:33N 37°26' E 025°17'2 1.6
2015-Mar-27 14:33N 37°26' E 025°19'0 0.0
2015-Mar-27 13:33N 37°26' E 025°19'0 0.0
2015-Mar-27 12:33N 37°26' E 025°19'0 0.0
2015-Mar-27 11:33N 37°26' E 025°19'0 0.0
2015-Mar-27 10:33N 37°26' E 025°19'0 0.0
2015-Mar-27 09:33N 37°26' E 025°19'0 0.0
2015-Mar-27 08:33N 37°26' E 025°19'0 0.0
2015-Mar-27 07:33N 37°26' E 025°19'0 0.0
2015-Mar-27 06:33N 37°26' E 025°19'0 0.0
2015-Mar-27 05:33N 37°26' E 025°19'0 0.0
2015-Mar-27 04:33N 37°26' E 025°19'0 0.0
2015-Mar-27 03:33N 37°26' E 025°19'0 0.0
2015-Mar-27 02:33N 37°26' E 025°19'0 0.0
2015-Mar-27 01:33N 37°26' E 025°19'0 0.0
2015-Mar-27 00:33N 37°26' E 025°19'0 0.0
2015-Mar-26 23:33N 37°26' E 025°19'0 0.0
2015-Mar-26 22:33N 37°26' E 025°19'0 0.0
2015-Mar-26 21:33N 37°26' E 025°19'0 0.0
2015-Mar-26 20:33N 37°26' E 025°19'0 0.0
2015-Mar-26 19:33N 37°26' E 025°19'0 0.0
2015-Mar-26 18:33N 37°26' E 025°19'0 0.0
2015-Mar-26 17:33N 37°26' E 025°19'0 0.0
2015-Mar-26 16:34N 37°26' E 025°19'0 0.0
2015-Mar-26 15:33N 37°26' E 025°19'7 6.6
2015-Mar-26 14:33N 37°30' E 025°12'3 3.3
2015-Mar-26 13:33N 37°32' E 025°09'0 0.0
2015-Mar-26 12:33N 37°32' E 025°09'0 0.0
2015-Mar-26 11:33N 37°32' E 025°09'0 0.0
2015-Mar-26 10:33N 37°32' E 025°09'0 0.0
2015-Mar-26 09:33N 37°32' E 025°09'0 0.0
2015-Mar-26 08:34N 37°32' E 025°09'0 0.0
2015-Mar-26 07:33N 37°32' E 025°09'0 0.0
2015-Mar-26 06:33N 37°32' E 025°09'0 0.0
2015-Mar-26 05:33N 37°32' E 025°09'0 0.0
2015-Mar-26 04:33N 37°32' E 025°09'0 0.0
2015-Mar-26 03:32N 37°32' E 025°09'0 0.0
2015-Mar-26 02:33N 37°32' E 025°09'1 1.0
2015-Mar-26 01:33N 37°31' E 025°09'11 8.4
2015-Mar-26 00:18N 37°34' E 025°22'6 8.4
2015-Mar-25 23:33N 37°36' E 025°30'  

Dump ship's entire track history